Uraga Maru — JD2163 — position and weather

sailwx.info

Track history (hours):
 
Tides and Currents Weather Stations Pressure Air Temp Water Temp Dewpoint Dewpoint Depression Visibility Wind Speed Wind Dir Waves Ship Positions

Uraga Maru

Last reported at 2014-Dec-22 01:33 UTC. Time now 2014-Dec-22 02:04 UTC.
Position N 35°23' E 139°41'.

Length 40 m; draft 2.8 m.

Type: Tug. MMSI: 431101119.

Date/timePositionNaut miles runAvg speedWind from/ knotsBaromVisibWave heightAir tempDewpointWater temp
2014-Dec-22 01:33N 35°23' E 139°41'1 1.3
2014-Dec-22 00:34N 35°24' E 139°39'2 1.8
2014-Dec-21 23:33N 35°22' E 139°40'2 1.8
2014-Dec-21 22:33N 35°21' E 139°41'12 8.1
2014-Dec-21 21:08N 35°10' E 139°46'4 6.5
2014-Dec-21 20:28N 35°13' E 139°43'0 0.0
2014-Dec-21 04:07N 35°13' E 139°43'3 3.6
2014-Dec-21 03:25N 35°15' E 139°45'1112.4
2014-Dec-21 02:34N 35°25' E 139°42'10 8.8
2014-Dec-21 01:29N 35°29' E 139°53'7 7.6
2014-Dec-21 00:33N 35°25' E 139°47'1110.6
2014-Dec-20 23:33N 35°14' E 139°47'3 3.2
2014-Dec-20 22:31N 35°13' E 139°43'0 0.1
2014-Dec-20 21:33N 35°13' E 139°43'0 0.0
2014-Dec-20 20:29N 35°13' E 139°43'0 0.0
2014-Dec-20 19:31N 35°13' E 139°43'0 0.0
2014-Dec-20 18:23N 35°13' E 139°43'0 0.0
2014-Dec-20 17:33N 35°13' E 139°43'0 0.0
2014-Dec-20 16:29N 35°13' E 139°43'0 0.0
2014-Dec-20 15:33N 35°13' E 139°43'0 0.0
2014-Dec-20 14:32N 35°13' E 139°43'0 0.0
2014-Dec-20 13:28N 35°13' E 139°43'0 0.0
2014-Dec-20 12:29N 35°13' E 139°43'0 0.0
2014-Dec-20 11:30N 35°13' E 139°43'0 0.0
2014-Dec-20 10:20N 35°13' E 139°43'0 0.0
2014-Dec-20 09:33N 35°13' E 139°43'0 0.0
2014-Dec-20 07:28N 35°13' E 139°43'4 2.0
2014-Dec-20 05:18N 35°18' E 139°42'1 0.7
2014-Dec-20 03:33N 35°19' E 139°41'1 1.1
2014-Dec-20 02:33N 35°18' E 139°42'3 2.5
2014-Dec-20 01:31N 35°17' E 139°45'9 9.3
2014-Dec-20 00:33N 35°26' E 139°47'5 4.9
2014-Dec-19 23:33N 35°21' E 139°49'4 3.4
2014-Dec-19 22:29N 35°22' E 139°45'9 4.6
2014-Dec-19 20:29N 35°13' E 139°43'0 0.4
2014-Dec-19 19:27N 35°13' E 139°43'0 0.0
2014-Dec-19 16:29N 35°13' E 139°43'0 0.0
2014-Dec-19 15:19N 35°13' E 139°43'3 0.7
2014-Dec-19 11:30N 35°12' E 139°46'1212.2
2014-Dec-19 10:33N 35°24' E 139°42'7 6.6
2014-Dec-19 09:32N 35°17' E 139°44'3 0.8
2014-Dec-19 05:30N 35°15' E 139°46'1111.2
2014-Dec-19 04:33N 35°25' E 139°44'3 0.5
2014-Dec-18 23:34N 35°23' E 139°46'1310.9
2014-Dec-18 22:20N 35°09' E 139°47'5 6.2
2014-Dec-18 21:33N 35°13' E 139°43'7 0.5
2014-Dec-18 07:33N 35°20' E 139°43'1 0.2
2014-Dec-18 01:33N 35°21' E 139°42'4 4.1
2014-Dec-18 00:33N 35°24' E 139°45'2 2.3
2014-Dec-17 23:33N 35°22' E 139°45'11 7.6
2014-Dec-17 22:07N 35°11' E 139°48'4 6.4
2014-Dec-17 21:28N 35°13' E 139°43'0 0.1
2014-Dec-17 20:09N 35°13' E 139°43'0 0.0
2014-Dec-17 19:26N 35°13' E 139°43'0 0.0
2014-Dec-17 18:32N 35°13' E 139°43'0 0.0
2014-Dec-17 17:32N 35°13' E 139°43'0 0.0
2014-Dec-17 16:29N 35°13' E 139°43'0 0.0
2014-Dec-17 10:20N 35°13' E 139°43'0 0.0
2014-Dec-16 22:34N 35°13' E 139°43'0 0.0
2014-Dec-16 21:32N 35°13' E 139°43'0 0.0
2014-Dec-16 20:33N 35°13' E 139°43'0 0.0
2014-Dec-16 19:31N 35°13' E 139°43'0 0.0
2014-Dec-16 18:32N 35°13' E 139°43'0 0.0
2014-Dec-16 17:32N 35°13' E 139°43'0 0.0
2014-Dec-16 16:33N 35°13' E 139°43'0 0.0
2014-Dec-16 15:29N 35°13' E 139°43'0 0.0
2014-Dec-16 14:32N 35°13' E 139°43'0 0.0
2014-Dec-16 13:21N 35°13' E 139°43'0 0.0
2014-Dec-16 11:32N 35°13' E 139°43'0 0.0
2014-Dec-16 10:08N 35°13' E 139°43'0 0.0
2014-Dec-16 09:18N 35°13' E 139°43'0 0.0
2014-Dec-16 08:31N 35°13' E 139°43'0 0.1
2014-Dec-16 07:31N 35°13' E 139°43'5 4.9
2014-Dec-16 06:31N 35°18' E 139°44'1010.1
2014-Dec-16 05:33N 35°28' E 139°44'0 0.3
2014-Dec-16 04:33N 35°28' E 139°45'1 1.1
2014-Dec-16 03:29N 35°29' E 139°46'0 0.0
2014-Dec-16 02:31N 35°29' E 139°46'7 2.2
2014-Dec-15 23:33N 35°22' E 139°45'9 2.2
2014-Dec-15 19:24N 35°13' E 139°43'3 0.2
2014-Dec-15 04:23N 35°15' E 139°46'911.4
2014-Dec-15 03:33N 35°24' E 139°43'6 5.9
2014-Dec-15 02:33N 35°29' E 139°46'0 0.1
2014-Dec-15 01:32N 35°29' E 139°46'6 2.8
2014-Dec-14 23:33N 35°23' E 139°46'10 5.1
2014-Dec-14 21:32N 35°13' E 139°43'0 0.0
2014-Dec-12 23:08N 35°13' E 139°43'3 4.6
2014-Dec-12 22:30N 35°14' E 139°46'1111.2
2014-Dec-12 21:33N 35°23' E 139°41'0 0.3
2014-Dec-12 20:34N 35°23' E 139°40'8 7.5
2014-Dec-12 19:33N 35°17' E 139°45'2 2.2
2014-Dec-12 18:33N 35°19' E 139°44'7 6.6
2014-Dec-12 17:33N 35°24' E 139°48'1 1.0
2014-Dec-12 16:30N 35°23' E 139°49'9 9.0
2014-Dec-12 15:33N 35°15' E 139°45'3 1.4
2014-Dec-12 13:32N 35°12' E 139°46'1111.5
2014-Dec-12 12:34N 35°23' E 139°41'1 1.1
2014-Dec-12 11:33N 35°23' E 139°40'0 0.0
2014-Dec-12 10:33N 35°23' E 139°40'8 5.6
2014-Dec-12 09:10N 35°16' E 139°45'814.1
2014-Dec-12 08:33N 35°24' E 139°42'1 1.5
2014-Dec-12 07:33N 35°26' E 139°42'0 0.0
2014-Dec-12 06:33N 35°26' E 139°42'0 0.0
2014-Dec-12 05:33N 35°26' E 139°42'2 2.2
2014-Dec-12 04:34N 35°24' E 139°42'  
Track history (hours):
 
Tides and Currents Weather Stations Pressure Air Temp Water Temp Dewpoint Dewpoint Depression Visibility Wind Speed Wind Dir Waves Ship Positions

Uraga Maru

Last reported at 2014-Dec-22 01:33 UTC. Time now 2014-Dec-22 02:04 UTC.
Position N 35°23' E 139°41'.

Length 40 m; draft 2.8 m.

Type: Tug. MMSI: 431101119.

Date/timePositionNaut miles runAvg speedWind from/ knotsBaromVisibWave heightAir tempDewpointWater temp
2014-Dec-22 01:33N 35°23' E 139°41'1 1.3
2014-Dec-22 00:34N 35°24' E 139°39'2 1.8
2014-Dec-21 23:33N 35°22' E 139°40'2 1.8
2014-Dec-21 22:33N 35°21' E 139°41'12 8.1
2014-Dec-21 21:08N 35°10' E 139°46'4 6.5
2014-Dec-21 20:28N 35°13' E 139°43'0 0.0
2014-Dec-21 04:07N 35°13' E 139°43'3 3.6
2014-Dec-21 03:25N 35°15' E 139°45'1112.4
2014-Dec-21 02:34N 35°25' E 139°42'10 8.8
2014-Dec-21 01:29N 35°29' E 139°53'7 7.6
2014-Dec-21 00:33N 35°25' E 139°47'1110.6
2014-Dec-20 23:33N 35°14' E 139°47'3 3.2
2014-Dec-20 22:31N 35°13' E 139°43'0 0.1
2014-Dec-20 21:33N 35°13' E 139°43'0 0.0
2014-Dec-20 20:29N 35°13' E 139°43'0 0.0
2014-Dec-20 19:31N 35°13' E 139°43'0 0.0
2014-Dec-20 18:23N 35°13' E 139°43'0 0.0
2014-Dec-20 17:33N 35°13' E 139°43'0 0.0
2014-Dec-20 16:29N 35°13' E 139°43'0 0.0
2014-Dec-20 15:33N 35°13' E 139°43'0 0.0
2014-Dec-20 14:32N 35°13' E 139°43'0 0.0
2014-Dec-20 13:28N 35°13' E 139°43'0 0.0
2014-Dec-20 12:29N 35°13' E 139°43'0 0.0
2014-Dec-20 11:30N 35°13' E 139°43'0 0.0
2014-Dec-20 10:20N 35°13' E 139°43'0 0.0
2014-Dec-20 09:33N 35°13' E 139°43'0 0.0
2014-Dec-20 07:28N 35°13' E 139°43'4 2.0
2014-Dec-20 05:18N 35°18' E 139°42'1 0.7
2014-Dec-20 03:33N 35°19' E 139°41'1 1.1
2014-Dec-20 02:33N 35°18' E 139°42'3 2.5
2014-Dec-20 01:31N 35°17' E 139°45'9 9.3
2014-Dec-20 00:33N 35°26' E 139°47'5 4.9
2014-Dec-19 23:33N 35°21' E 139°49'4 3.4
2014-Dec-19 22:29N 35°22' E 139°45'9 4.6
2014-Dec-19 20:29N 35°13' E 139°43'0 0.4
2014-Dec-19 19:27N 35°13' E 139°43'0 0.0
2014-Dec-19 16:29N 35°13' E 139°43'0 0.0
2014-Dec-19 15:19N 35°13' E 139°43'3 0.7
2014-Dec-19 11:30N 35°12' E 139°46'1212.2
2014-Dec-19 10:33N 35°24' E 139°42'7 6.6
2014-Dec-19 09:32N 35°17' E 139°44'3 0.8
2014-Dec-19 05:30N 35°15' E 139°46'1111.2
2014-Dec-19 04:33N 35°25' E 139°44'3 0.5
2014-Dec-18 23:34N 35°23' E 139°46'1310.9
2014-Dec-18 22:20N 35°09' E 139°47'5 6.2
2014-Dec-18 21:33N 35°13' E 139°43'7 0.5
2014-Dec-18 07:33N 35°20' E 139°43'1 0.2
2014-Dec-18 01:33N 35°21' E 139°42'4 4.1
2014-Dec-18 00:33N 35°24' E 139°45'2 2.3
2014-Dec-17 23:33N 35°22' E 139°45'11 7.6
2014-Dec-17 22:07N 35°11' E 139°48'4 6.4
2014-Dec-17 21:28N 35°13' E 139°43'0 0.1
2014-Dec-17 20:09N 35°13' E 139°43'0 0.0
2014-Dec-17 19:26N 35°13' E 139°43'0 0.0
2014-Dec-17 18:32N 35°13' E 139°43'0 0.0
2014-Dec-17 17:32N 35°13' E 139°43'0 0.0
2014-Dec-17 16:29N 35°13' E 139°43'0 0.0
2014-Dec-17 10:20N 35°13' E 139°43'0 0.0
2014-Dec-16 22:34N 35°13' E 139°43'0 0.0
2014-Dec-16 21:32N 35°13' E 139°43'0 0.0
2014-Dec-16 20:33N 35°13' E 139°43'0 0.0
2014-Dec-16 19:31N 35°13' E 139°43'0 0.0
2014-Dec-16 18:32N 35°13' E 139°43'0 0.0
2014-Dec-16 17:32N 35°13' E 139°43'0 0.0
2014-Dec-16 16:33N 35°13' E 139°43'0 0.0
2014-Dec-16 15:29N 35°13' E 139°43'0 0.0
2014-Dec-16 14:32N 35°13' E 139°43'0 0.0
2014-Dec-16 13:21N 35°13' E 139°43'0 0.0
2014-Dec-16 11:32N 35°13' E 139°43'0 0.0
2014-Dec-16 10:08N 35°13' E 139°43'0 0.0
2014-Dec-16 09:18N 35°13' E 139°43'0 0.0
2014-Dec-16 08:31N 35°13' E 139°43'0 0.1
2014-Dec-16 07:31N 35°13' E 139°43'5 4.9
2014-Dec-16 06:31N 35°18' E 139°44'1010.1
2014-Dec-16 05:33N 35°28' E 139°44'0 0.3
2014-Dec-16 04:33N 35°28' E 139°45'1 1.1
2014-Dec-16 03:29N 35°29' E 139°46'0 0.0
2014-Dec-16 02:31N 35°29' E 139°46'7 2.2
2014-Dec-15 23:33N 35°22' E 139°45'9 2.2
2014-Dec-15 19:24N 35°13' E 139°43'3 0.2
2014-Dec-15 04:23N 35°15' E 139°46'911.4
2014-Dec-15 03:33N 35°24' E 139°43'6 5.9
2014-Dec-15 02:33N 35°29' E 139°46'0 0.1
2014-Dec-15 01:32N 35°29' E 139°46'6 2.8
2014-Dec-14 23:33N 35°23' E 139°46'10 5.1
2014-Dec-14 21:32N 35°13' E 139°43'0 0.0
2014-Dec-12 23:08N 35°13' E 139°43'3 4.6
2014-Dec-12 22:30N 35°14' E 139°46'1111.2
2014-Dec-12 21:33N 35°23' E 139°41'0 0.3
2014-Dec-12 20:34N 35°23' E 139°40'8 7.5
2014-Dec-12 19:33N 35°17' E 139°45'2 2.2
2014-Dec-12 18:33N 35°19' E 139°44'7 6.6
2014-Dec-12 17:33N 35°24' E 139°48'1 1.0
2014-Dec-12 16:30N 35°23' E 139°49'9 9.0
2014-Dec-12 15:33N 35°15' E 139°45'3 1.4
2014-Dec-12 13:32N 35°12' E 139°46'1111.5
2014-Dec-12 12:34N 35°23' E 139°41'1 1.1
2014-Dec-12 11:33N 35°23' E 139°40'0 0.0
2014-Dec-12 10:33N 35°23' E 139°40'8 5.6
2014-Dec-12 09:10N 35°16' E 139°45'814.1
2014-Dec-12 08:33N 35°24' E 139°42'1 1.5
2014-Dec-12 07:33N 35°26' E 139°42'0 0.0
2014-Dec-12 06:33N 35°26' E 139°42'0 0.0
2014-Dec-12 05:33N 35°26' E 139°42'2 2.2
2014-Dec-12 04:34N 35°24' E 139°42'  

Dump ship's entire track history